KMNN/MNN METAR and TAF weather

Enter ICAO airport designator
Station Type Date Time Source
KMNN METAR 2022/12/04 11:53 UTC NOAA

KMNN 041153Z AUTO 00000KT 9SM CLR M08/M11 A3030 RMK AO2 SLP279 70003 T10831111 11039 21094 58011


Station Type Date Time Source
KMNN Decoded METAR 2022/12/04 11:53 UTC NOAA

MARION MUNICIPAL AIRPORT, OH, United States (KMNN) 40-37N 83-04W 301M
Dec 04, 2022 - 06:53 AM EST / 2022.12.04 1153 UTC
Wind: Calm:0
Visibility: 9 mile(s):0
Sky conditions: clear
Temperature: 17.1 F (-8.3 C)
Dew Point: 12.0 F (-11.1 C)
Relative Humidity: 80%
Pressure (altimeter): 30.3 in. Hg (1026 hPa)
Pressure tendency: 0.03 inches (1.1 hPa) lower than three hours ago
ob: KMNN 041153Z AUTO 00000KT 9SM CLR M08/M11 A3030 RMK AO2 SLP279 70003 T10831111 11039 21094 58011
cycle: 12

Station Type Date Time Source
KMNN TAF UTC NOAA

Error!

Example: see airport list